CheckWX is a tool to help pilots better visualize weather data.  It is not intended as a substitute for an official pre-flight weather briefing.

20:35:07 UTC

KASE METAR
Aspen-Pitkin Co / Sardy Field Airport
Aspen, Colorado, USA
Current

42 mins ago

KASE 181953Z VRB03KT 10SM FEW070 SCT110 M04/M15 A2975 RMK AO2 SLP082 T10391150
Observed
Feb-18 @ 19:53 UTC
Wind
  • Variable at 3 KTS
Visibility
10 SM
Flight Rules
VFR
Cloud Levels
  • Few at 7,000' AGL
  • Scattered at 11,000' AGL
Temperature
-4°C / 25°F
Dewpoint
-15°C / 5°F
Humidity
42%
Altimeter
29.75" Hg
Pressure
1008.2 hPa
Previous

42 mins ago

KASE 181953Z COR 21014G19KT 10SM FEW070 SCT110 M04/M15 A2975 RMK AO2 SLP082 T10391150
Observed
Feb-18 @ 19:53 UTC
Wind
  • 210° at 14 KTS
  • Gusting to 19 KTS
Visibility
10 SM
Flight Rules
VFR
Cloud Levels
  • Few at 7,000' AGL
  • Scattered at 11,000' AGL
Temperature
-4°C / 25°F
Dewpoint
-15°C / 5°F
Humidity
42%
Altimeter
29.75" Hg
Pressure
1008.2 hPa
Previous

2 hours ago

KASE 181853Z 34003KT 10SM CLR M04/M16 A2979 RMK AO2 SLP093 T10391156
Observed
Feb-18 @ 18:53 UTC
Wind
  • 340° at 3 KTS
Visibility
10 SM
Flight Rules
VFR
Cloud Levels
  • Clear skies
Temperature
-4°C / 25°F
Dewpoint
-16°C / 3°F
Humidity
39%
Altimeter
29.79" Hg
Pressure
1009.3 hPa